AirNav   TITAN Aviation Fuels
 
 576 users online  

RI21 Goat Island Heliport
Newport, Rhode Island, USA

GOING TO NEWPORT?


FAA INFORMATION EFFECTIVE 19 MAY 2022

Location

FAA Identifier: RI21
Lat/Long: 41-29-17.4000N 071-19-40.5000W
41-29.290000N 071-19.675000W
41.4881667,-71.3279167
(estimated)
Elevation: 8 ft. / 2 m (estimated)
Variation: 15W (1985)
From city: 4 miles NE of NEWPORT, RI
Time zone: UTC -4 (UTC -5 during Standard Time)
Zip code: 02840

Heliport Operations

Heliport use: Private use. Permission required prior to landing
Activation date: 09/1983
Control tower: no
ARTCC: BOSTON CENTER
FSS: BRIDGEPORT FLIGHT SERVICE STATION
Attendance: UNATNDD
Wind indicator: yes
Segmented circle: no

Heliport Communications

WX ASOS at UUU (3 nm NE): 132.075 (401-846-5910)
WX ASOS at OQU (8 nm NW): 118.6
WX ASOS at PVD (15 nm N): 124.2 (401-734-2818)

Nearby radio navigation aids

VOR radial/distance  VOR name  Freq  Var
PVDr176/14.9PROVIDENCE VOR/DME115.6014W
SEYr045/22.3SANDY POINT VOR/DME117.8015W
ORWr112/30.4NORWICH VOR/DME110.0014W
MVYr295/32.6MARTHAS VINEYARD VOR/DME114.5015W
GONr088/33.9GROTON VOR/DME110.8514W
PUTr154/36.3PUTNAM VOR/DME117.4014W

Heliport Services

Runway Information

Helipad H1

Dimensions: 200 x 200 ft. / 61 x 61 m
Surface: turf
Latitude: 41-29.290000N
Longitude: 071-19.675000W
Elevation: 8.0 ft.
Traffic pattern: leftleft

Heliport Ownership and Management from official FAA records

Ownership: Privately-owned
Owner: ISLAND DEVELOPMENT CORPORATION
1 GOAT ISLAND
NEWPORT, RI 02840
Phone 401-849-6683
Manager: DON PODESLA
IDC - 2 GOAT ISLAND
NEWPORT, RI 02840
Phone 401-849-6683
CELL 401-524-6662

Heliport Operational Statistics

Aircraft operations: 12/year *
100% transient general aviation
* for 12-month period ending 07 November 2002

Additional Remarks

FOR CD CTC PROVIDENCE APCH AT 401-738-8945, WHEN APCH CLSD CTC BOSTON ARTCC AT 603-879-6859.

Instrument Procedures

There are no published instrument procedures at RI21.

Some nearby airports with instrument procedures:

KUUU - Newport State Airport (3 nm NE)
KOQU - Quonset State Airport (8 nm NW)
KPVD - Rhode Island TF Green International Airport (15 nm N)
KEWB - New Bedford Regional Airport (20 nm NE)
KBID - Block Island State Airport (22 nm SW)
 
Loc | Ops | Rwys | IFR | FBO | Links
Com | Nav | Svcs | Stats | Notes
Area around RI21 (Goat Island Heliport)
 
Road maps at: MapQuest Bing Google
 
Aerial photo
No photo
 
Sectional chart

 
Airport distance calculator
Flying to Goat Island Heliport? Find the distance to fly.

From to RI21

Sunrise and sunset
Times for 27-May-2022
 Local
(UTC-4)
 Zulu
(UTC)
Morning civil twilight04:4508:45
Sunrise05:1809:18
Sunset20:0700:07
Evening civil twilight20:4000:40

Current date and time
Zulu (UTC)  27-May-2022 06:59:27
Local (UTC-4)  27-May-2022 02:59:27
 
METAR
KUUU 
3nm NE 
270653Z AUTO VRB05KT 2 1/2SM -RA BR OVC002 16/16 A3006 RMK AO2 SLP179 P0002 T01560156
KOQU 
8nm NW 
270250Z 25010KT 10SM FEW030 BKN200 16/13 A3014 RMK LAST
KPVD 
15nm N 
270651Z 18004KT 5SM BR SCT005 OVC019 16/15 A3006 RMK AO2 SLP181 T01610150
TAF
KPVD 
15nm N 
270536Z 2706/2806 20007KT P6SM OVC025 FM270800 19007KT 5SM -DZ BR OVC008 FM270900 19007KT 2SM -DZ BR OVC003 FM271400 20011G19KT P6SM BKN012 FM272300 20012G24KT 3SM BR SCT003 OVC008
NOTAMs
Click for the latest NOTAMs
NOTAMs are issued by the DoD/FAA and will open in a separate window not controlled by AirNav.

 

 
 

Would you like to see your business listed on this page?

 If your business provides an interesting product or service to pilots, flight crews, aircraft, or users of the Goat Island Heliport, you should consider listing it here.  To start the listing process, click on the button below
 
Add a business
 

Other Pages about Goat Island Heliport

Update a link
 
Copyright © AirNav, LLC. All rights reserved. Privacy Policy  Contact